sensor_id;sensor_type;location;lat;lon;timestamp;temperature;humidity
10905;DHT22;5505;51.450;9.254;2022-07-23T00:01:41;16.40;99.90
10905;DHT22;5505;51.450;9.254;2022-07-23T00:04:28;16.50;99.90
10905;DHT22;5505;51.450;9.254;2022-07-23T00:07:15;16.60;99.90
10905;DHT22;5505;51.450;9.254;2022-07-23T00:10:02;16.60;99.90
10905;DHT22;5505;51.450;9.254;2022-07-23T00:12:49;16.40;99.90
10905;DHT22;5505;51.450;9.254;2022-07-23T00:15:37;16.40;99.90
10905;DHT22;5505;51.450;9.254;2022-07-23T00:18:24;16.30;99.90
10905;DHT22;5505;51.450;9.254;2022-07-23T00:21:11;16.40;99.90
10905;DHT22;5505;51.450;9.254;2022-07-23T00:23:57;16.40;99.90
10905;DHT22;5505;51.450;9.254;2022-07-23T00:26:44;16.40;99.90
10905;DHT22;5505;51.450;9.254;2022-07-23T00:29:31;16.50;99.90
10905;DHT22;5505;51.450;9.254;2022-07-23T00:32:19;16.50;99.90
10905;DHT22;5505;51.450;9.254;2022-07-23T00:35:07;16.40;99.90
10905;DHT22;5505;51.450;9.254;2022-07-23T00:37:54;16.40;99.90
10905;DHT22;5505;51.450;9.254;2022-07-23T00:40:41;16.40;99.90
10905;DHT22;5505;51.450;9.254;2022-07-23T00:43:28;16.40;99.90
10905;DHT22;5505;51.450;9.254;2022-07-23T00:46:19;16.40;99.90
10905;DHT22;5505;51.450;9.254;2022-07-23T00:49:08;16.30;99.90
10905;DHT22;5505;51.450;9.254;2022-07-23T00:51:55;16.30;99.90
10905;DHT22;5505;51.450;9.254;2022-07-23T00:54:42;16.30;99.90
10905;DHT22;5505;51.450;9.254;2022-07-23T00:57:29;16.20;99.90
10905;DHT22;5505;51.450;9.254;2022-07-23T01:00:16;16.20;99.90
10905;DHT22;5505;51.450;9.254;2022-07-23T01:03:03;16.10;99.90
10905;DHT22;5505;51.450;9.254;2022-07-23T01:05:51;16.10;99.90
10905;DHT22;5505;51.450;9.254;2022-07-23T01:08:38;16.20;99.90
10905;DHT22;5505;51.450;9.254;2022-07-23T01:11:25;16.30;99.90
10905;DHT22;5505;51.450;9.254;2022-07-23T01:14:14;16.30;99.90
10905;DHT22;5505;51.450;9.254;2022-07-23T01:17:01;16.20;99.90
10905;DHT22;5505;51.450;9.254;2022-07-23T01:19:47;16.20;99.90
10905;DHT22;5505;51.450;9.254;2022-07-23T01:22:36;16.20;99.90
10905;DHT22;5505;51.450;9.254;2022-07-23T01:25:23;16.10;99.90
10905;DHT22;5505;51.450;9.254;2022-07-23T01:28:09;16.10;99.90
10905;DHT22;5505;51.450;9.254;2022-07-23T01:30:57;16.10;99.90
10905;DHT22;5505;51.450;9.254;2022-07-23T01:33:44;16.10;99.90
10905;DHT22;5505;51.450;9.254;2022-07-23T01:36:31;16.10;99.90
10905;DHT22;5505;51.450;9.254;2022-07-23T01:39:19;16.10;99.90
10905;DHT22;5505;51.450;9.254;2022-07-23T01:42:06;16.00;99.90
10905;DHT22;5505;51.450;9.254;2022-07-23T01:44:53;16.10;99.90
10905;DHT22;5505;51.450;9.254;2022-07-23T01:47:40;16.10;99.90
10905;DHT22;5505;51.450;9.254;2022-07-23T01:50:26;16.20;99.90
10905;DHT22;5505;51.450;9.254;2022-07-23T01:53:13;16.10;99.90
10905;DHT22;5505;51.450;9.254;2022-07-23T01:56:02;16.10;99.90
10905;DHT22;5505;51.450;9.254;2022-07-23T01:58:49;16.00;99.90
10905;DHT22;5505;51.450;9.254;2022-07-23T02:01:35;16.10;99.90
10905;DHT22;5505;51.450;9.254;2022-07-23T02:04:23;16.10;99.90
10905;DHT22;5505;51.450;9.254;2022-07-23T02:07:11;16.10;99.90
10905;DHT22;5505;51.450;9.254;2022-07-23T02:09:58;16.00;99.90
10905;DHT22;5505;51.450;9.254;2022-07-23T02:12:46;16.00;99.90
10905;DHT22;5505;51.450;9.254;2022-07-23T02:15:33;16.00;99.90
10905;DHT22;5505;51.450;9.254;2022-07-23T02:18:20;16.00;99.90
10905;DHT22;5505;51.450;9.254;2022-07-23T02:21:07;15.90;99.90
10905;DHT22;5505;51.450;9.254;2022-07-23T02:23:54;15.90;99.90
10905;DHT22;5505;51.450;9.254;2022-07-23T02:26:41;17.90;99.90
10905;DHT22;5505;51.450;9.254;2022-07-23T02:29:29;15.80;99.90
10905;DHT22;5505;51.450;9.254;2022-07-23T02:32:15;15.80;99.90
10905;DHT22;5505;51.450;9.254;2022-07-23T02:35:03;15.80;99.90
10905;DHT22;5505;51.450;9.254;2022-07-23T02:37:50;15.70;99.90
10905;DHT22;5505;51.450;9.254;2022-07-23T02:40:37;15.70;99.90
10905;DHT22;5505;51.450;9.254;2022-07-23T02:43:23;15.70;99.90
10905;DHT22;5505;51.450;9.254;2022-07-23T02:46:12;15.70;99.90
10905;DHT22;5505;51.450;9.254;2022-07-23T02:48:58;15.70;99.90
10905;DHT22;5505;51.450;9.254;2022-07-23T02:51:45;15.70;99.90
10905;DHT22;5505;51.450;9.254;2022-07-23T02:54:32;15.60;99.90
10905;DHT22;5505;51.450;9.254;2022-07-23T02:57:19;15.60;99.90
10905;DHT22;5505;51.450;9.254;2022-07-23T03:00:07;15.50;99.90
10905;DHT22;5505;51.450;9.254;2022-07-23T03:02:55;15.50;99.90
10905;DHT22;5505;51.450;9.254;2022-07-23T03:05:42;15.60;99.90
10905;DHT22;5505;51.450;9.254;2022-07-23T03:08:29;15.50;99.90
10905;DHT22;5505;51.450;9.254;2022-07-23T03:11:16;15.50;99.90
10905;DHT22;5505;51.450;9.254;2022-07-23T03:14:02;15.50;99.90
10905;DHT22;5505;51.450;9.254;2022-07-23T03:16:49;15.50;99.90
10905;DHT22;5505;51.450;9.254;2022-07-23T03:19:37;15.50;99.90
10905;DHT22;5505;51.450;9.254;2022-07-23T03:22:24;15.50;99.90
10905;DHT22;5505;51.450;9.254;2022-07-23T03:25:11;15.50;99.90
10905;DHT22;5505;51.450;9.254;2022-07-23T03:27:58;15.50;99.90
10905;DHT22;5505;51.450;9.254;2022-07-23T03:30:46;15.50;99.90
10905;DHT22;5505;51.450;9.254;2022-07-23T03:33:33;15.50;99.90
10905;DHT22;5505;51.450;9.254;2022-07-23T03:36:21;15.40;99.90
10905;DHT22;5505;51.450;9.254;2022-07-23T03:39:07;15.20;99.90
10905;DHT22;5505;51.450;9.254;2022-07-23T03:41:54;15.20;99.90
10905;DHT22;5505;51.450;9.254;2022-07-23T03:44:41;15.10;99.90
10905;DHT22;5505;51.450;9.254;2022-07-23T03:47:28;15.10;99.90
10905;DHT22;5505;51.450;9.254;2022-07-23T03:50:15;15.20;99.90
10905;DHT22;5505;51.450;9.254;2022-07-23T03:53:03;15.20;99.90
10905;DHT22;5505;51.450;9.254;2022-07-23T03:55:50;15.30;99.90
10905;DHT22;5505;51.450;9.254;2022-07-23T03:58:36;15.30;99.90
10905;DHT22;5505;51.450;9.254;2022-07-23T04:01:23;15.40;99.90
10905;DHT22;5505;51.450;9.254;2022-07-23T04:04:10;15.40;99.90
10905;DHT22;5505;51.450;9.254;2022-07-23T04:06:57;15.50;99.90
10905;DHT22;5505;51.450;9.254;2022-07-23T04:09:45;15.50;99.90
10905;DHT22;5505;51.450;9.254;2022-07-23T04:12:32;15.50;99.90
10905;DHT22;5505;51.450;9.254;2022-07-23T04:15:19;15.50;99.90
10905;DHT22;5505;51.450;9.254;2022-07-23T04:18:06;15.50;99.90
10905;DHT22;5505;51.450;9.254;2022-07-23T04:20:53;15.50;99.90
10905;DHT22;5505;51.450;9.254;2022-07-23T04:23:40;15.40;99.90
10905;DHT22;5505;51.450;9.254;2022-07-23T04:26:28;15.40;99.90
10905;DHT22;5505;51.450;9.254;2022-07-23T04:29:15;15.40;99.90
10905;DHT22;5505;51.450;9.254;2022-07-23T04:32:01;15.40;99.90
10905;DHT22;5505;51.450;9.254;2022-07-23T04:34:48;15.40;99.90
10905;DHT22;5505;51.450;9.254;2022-07-23T04:37:35;15.40;99.90
10905;DHT22;5505;51.450;9.254;2022-07-23T04:40:22;15.30;99.90
10905;DHT22;5505;51.450;9.254;2022-07-23T04:43:10;15.30;99.90
10905;DHT22;5505;51.450;9.254;2022-07-23T04:45:57;15.30;99.90
10905;DHT22;5505;51.450;9.254;2022-07-23T04:48:44;15.50;99.90
10905;DHT22;5505;51.450;9.254;2022-07-23T04:51:30;15.60;99.90
10905;DHT22;5505;51.450;9.254;2022-07-23T04:54:17;15.60;99.90
10905;DHT22;5505;51.450;9.254;2022-07-23T04:57:04;15.70;99.90
10905;DHT22;5505;51.450;9.254;2022-07-23T04:59:52;15.70;99.90
10905;DHT22;5505;51.450;9.254;2022-07-23T05:02:39;15.70;99.90
10905;DHT22;5505;51.450;9.254;2022-07-23T05:05:26;15.80;99.90
10905;DHT22;5505;51.450;9.254;2022-07-23T05:08:12;15.80;99.90
10905;DHT22;5505;51.450;9.254;2022-07-23T05:10:59;15.90;99.90
10905;DHT22;5505;51.450;9.254;2022-07-23T05:13:46;15.90;99.90
10905;DHT22;5505;51.450;9.254;2022-07-23T05:16:34;16.00;99.90
10905;DHT22;5505;51.450;9.254;2022-07-23T05:19:21;15.90;99.90
10905;DHT22;5505;51.450;9.254;2022-07-23T05:22:08;16.00;99.90
10905;DHT22;5505;51.450;9.254;2022-07-23T05:24:55;16.00;99.90
10905;DHT22;5505;51.450;9.254;2022-07-23T05:27:42;15.90;99.90
10905;DHT22;5505;51.450;9.254;2022-07-23T05:30:28;16.00;99.90
10905;DHT22;5505;51.450;9.254;2022-07-23T05:33:18;16.10;99.90
10905;DHT22;5505;51.450;9.254;2022-07-23T05:36:05;16.10;99.90
10905;DHT22;5505;51.450;9.254;2022-07-23T05:38:52;16.10;99.90
10905;DHT22;5505;51.450;9.254;2022-07-23T05:41:39;16.10;99.90
10905;DHT22;5505;51.450;9.254;2022-07-23T05:44:25;16.20;99.90
10905;DHT22;5505;51.450;9.254;2022-07-23T05:47:12;16.30;99.90
10905;DHT22;5505;51.450;9.254;2022-07-23T05:50:01;16.20;99.90
10905;DHT22;5505;51.450;9.254;2022-07-23T05:52:47;16.20;99.90
10905;DHT22;5505;51.450;9.254;2022-07-23T05:55:34;16.30;99.90
10905;DHT22;5505;51.450;9.254;2022-07-23T05:58:21;16.40;99.90
10905;DHT22;5505;51.450;9.254;2022-07-23T06:01:08;16.30;99.90
10905;DHT22;5505;51.450;9.254;2022-07-23T06:03:57;16.40;99.90
10905;DHT22;5505;51.450;9.254;2022-07-23T06:06:45;16.30;99.90
10905;DHT22;5505;51.450;9.254;2022-07-23T06:09:32;16.30;99.90
10905;DHT22;5505;51.450;9.254;2022-07-23T06:12:18;16.30;99.90
10905;DHT22;5505;51.450;9.254;2022-07-23T06:15:06;16.40;99.90
10905;DHT22;5505;51.450;9.254;2022-07-23T06:17:54;16.40;99.90
10905;DHT22;5505;51.450;9.254;2022-07-23T06:20:40;16.50;99.90
10905;DHT22;5505;51.450;9.254;2022-07-23T06:23:29;17.90;99.90
10905;DHT22;5505;51.450;9.254;2022-07-23T06:26:15;16.60;99.90
10905;DHT22;5505;51.450;9.254;2022-07-23T06:29:02;16.70;99.90
10905;DHT22;5505;51.450;9.254;2022-07-23T06:31:49;16.80;99.90
10905;DHT22;5505;51.450;9.254;2022-07-23T06:34:36;16.80;99.90
10905;DHT22;5505;51.450;9.254;2022-07-23T06:37:24;16.80;99.90
10905;DHT22;5505;51.450;9.254;2022-07-23T06:40:13;16.90;99.90
10905;DHT22;5505;51.450;9.254;2022-07-23T06:42:59;17.00;99.90
10905;DHT22;5505;51.450;9.254;2022-07-23T06:45:46;17.10;99.90
10905;DHT22;5505;51.450;9.254;2022-07-23T06:48:33;17.10;99.90
10905;DHT22;5505;51.450;9.254;2022-07-23T06:51:21;17.00;99.90
10905;DHT22;5505;51.450;9.254;2022-07-23T06:54:08;17.10;99.90
10905;DHT22;5505;51.450;9.254;2022-07-23T06:56:56;17.10;99.90
10905;DHT22;5505;51.450;9.254;2022-07-23T06:59:43;17.20;99.90
10905;DHT22;5505;51.450;9.254;2022-07-23T07:02:29;17.40;99.90
10905;DHT22;5505;51.450;9.254;2022-07-23T07:05:16;17.50;99.90
10905;DHT22;5505;51.450;9.254;2022-07-23T07:08:03;17.40;99.90
10905;DHT22;5505;51.450;9.254;2022-07-23T07:10:50;17.30;99.90
10905;DHT22;5505;51.450;9.254;2022-07-23T07:13:38;17.20;99.90
10905;DHT22;5505;51.450;9.254;2022-07-23T07:16:25;17.30;99.90
10905;DHT22;5505;51.450;9.254;2022-07-23T07:19:12;17.40;99.90
10905;DHT22;5505;51.450;9.254;2022-07-23T07:21:59;17.70;99.90
10905;DHT22;5505;51.450;9.254;2022-07-23T07:24:45;18.00;99.90
10905;DHT22;5505;51.450;9.254;2022-07-23T07:27:32;18.20;99.90
10905;DHT22;5505;51.450;9.254;2022-07-23T07:30:21;18.30;99.90
10905;DHT22;5505;51.450;9.254;2022-07-23T07:33:07;18.50;99.90
10905;DHT22;5505;51.450;9.254;2022-07-23T07:35:54;18.60;99.90
10905;DHT22;5505;51.450;9.254;2022-07-23T07:38:41;18.80;99.90
10905;DHT22;5505;51.450;9.254;2022-07-23T07:41:28;18.90;99.90
10905;DHT22;5505;51.450;9.254;2022-07-23T07:44:15;19.00;99.90
10905;DHT22;5505;51.450;9.254;2022-07-23T07:47:03;19.10;99.90
10905;DHT22;5505;51.450;9.254;2022-07-23T07:49:50;19.30;99.90
10905;DHT22;5505;51.450;9.254;2022-07-23T07:52:37;19.40;99.90
10905;DHT22;5505;51.450;9.254;2022-07-23T07:55:23;19.70;99.90
10905;DHT22;5505;51.450;9.254;2022-07-23T07:58:10;19.80;99.90
10905;DHT22;5505;51.450;9.254;2022-07-23T08:00:57;19.90;99.90
10905;DHT22;5505;51.450;9.254;2022-07-23T08:03:46;20.00;99.90
10905;DHT22;5505;51.450;9.254;2022-07-23T08:06:33;20.40;99.90
10905;DHT22;5505;51.450;9.254;2022-07-23T08:09:19;20.50;99.90
10905;DHT22;5505;51.450;9.254;2022-07-23T08:12:07;20.40;99.90
10905;DHT22;5505;51.450;9.254;2022-07-23T08:14:54;20.20;99.90
10905;DHT22;5505;51.450;9.254;2022-07-23T08:17:41;20.00;99.90
10905;DHT22;5505;51.450;9.254;2022-07-23T08:20:29;19.90;99.90
10905;DHT22;5505;51.450;9.254;2022-07-23T08:23:16;19.70;99.90
10905;DHT22;5505;51.450;9.254;2022-07-23T08:26:04;19.60;99.90
10905;DHT22;5505;51.450;9.254;2022-07-23T08:28:51;19.60;99.90
10905;DHT22;5505;51.450;9.254;2022-07-23T08:31:38;19.50;99.90
10905;DHT22;5505;51.450;9.254;2022-07-23T08:34:25;19.40;99.90
10905;DHT22;5505;51.450;9.254;2022-07-23T08:37:13;19.40;99.90
10905;DHT22;5505;51.450;9.254;2022-07-23T08:40:00;19.40;99.90
10905;DHT22;5505;51.450;9.254;2022-07-23T08:42:49;19.40;99.90
10905;DHT22;5505;51.450;9.254;2022-07-23T08:45:38;19.60;99.90
10905;DHT22;5505;51.450;9.254;2022-07-23T08:48:26;19.80;99.90
10905;DHT22;5505;51.450;9.254;2022-07-23T08:51:14;20.20;99.90
10905;DHT22;5505;51.450;9.254;2022-07-23T08:54:02;20.30;99.90
10905;DHT22;5505;51.450;9.254;2022-07-23T08:56:50;20.20;99.90
10905;DHT22;5505;51.450;9.254;2022-07-23T08:59:36;20.10;99.90
10905;DHT22;5505;51.450;9.254;2022-07-23T09:02:23;20.20;99.90
10905;DHT22;5505;51.450;9.254;2022-07-23T09:05:11;20.40;99.90
10905;DHT22;5505;51.450;9.254;2022-07-23T09:08:07;20.40;99.90
10905;DHT22;5505;51.450;9.254;2022-07-23T09:10:58;20.50;99.90
10905;DHT22;5505;51.450;9.254;2022-07-23T09:13:46;20.50;99.90
10905;DHT22;5505;51.450;9.254;2022-07-23T09:16:34;20.50;99.90
10905;DHT22;5505;51.450;9.254;2022-07-23T09:19:27;20.60;99.90
10905;DHT22;5505;51.450;9.254;2022-07-23T09:22:21;20.60;99.90
10905;DHT22;5505;51.450;9.254;2022-07-23T09:25:11;20.70;99.90
10905;DHT22;5505;51.450;9.254;2022-07-23T09:28:01;20.60;99.90
10905;DHT22;5505;51.450;9.254;2022-07-23T09:30:51;20.50;99.90
10905;DHT22;5505;51.450;9.254;2022-07-23T09:33:37;20.60;99.90
10905;DHT22;5505;51.450;9.254;2022-07-23T09:36:28;20.80;99.90
10905;DHT22;5505;51.450;9.254;2022-07-23T09:39:27;21.00;99.90
10905;DHT22;5505;51.450;9.254;2022-07-23T09:42:15;21.30;99.90
10905;DHT22;5505;51.450;9.254;2022-07-23T09:45:10;21.40;99.90
10905;DHT22;5505;51.450;9.254;2022-07-23T09:48:10;21.30;99.90
10905;DHT22;5505;51.450;9.254;2022-07-23T09:51:02;21.20;99.90
10905;DHT22;5505;51.450;9.254;2022-07-23T09:53:49;21.20;99.90
10905;DHT22;5505;51.450;9.254;2022-07-23T09:56:36;21.20;99.90
10905;DHT22;5505;51.450;9.254;2022-07-23T09:59:26;21.30;99.90
10905;DHT22;5505;51.450;9.254;2022-07-23T10:02:15;21.30;99.90
10905;DHT22;5505;51.450;9.254;2022-07-23T10:05:03;21.50;99.90
10905;DHT22;5505;51.450;9.254;2022-07-23T10:07:51;21.70;99.90
10905;DHT22;5505;51.450;9.254;2022-07-23T10:10:39;21.60;99.90
10905;DHT22;5505;51.450;9.254;2022-07-23T10:13:26;21.50;99.90
10905;DHT22;5505;51.450;9.254;2022-07-23T10:16:21;21.70;99.90
10905;DHT22;5505;51.450;9.254;2022-07-23T10:19:10;21.90;99.90
10905;DHT22;5505;51.450;9.254;2022-07-23T10:21:59;21.90;99.90
10905;DHT22;5505;51.450;9.254;2022-07-23T10:24:55;21.80;99.90
10905;DHT22;5505;51.450;9.254;2022-07-23T10:28:32;21.80;99.90
10905;DHT22;5505;51.450;9.254;2022-07-23T10:31:34;21.80;99.90
10905;DHT22;5505;51.450;9.254;2022-07-23T10:34:29;21.90;99.90
10905;DHT22;5505;51.450;9.254;2022-07-23T10:37:23;21.90;99.90
10905;DHT22;5505;51.450;9.254;2022-07-23T10:40:16;21.90;99.90
10905;DHT22;5505;51.450;9.254;2022-07-23T10:43:13;22.00;99.90
10905;DHT22;5505;51.450;9.254;2022-07-23T10:46:23;22.10;99.90
10905;DHT22;5505;51.450;9.254;2022-07-23T10:49:26;22.30;99.90
10905;DHT22;5505;51.450;9.254;2022-07-23T10:52:24;22.50;99.90
10905;DHT22;5505;51.450;9.254;2022-07-23T10:55:40;22.60;99.90
10905;DHT22;5505;51.450;9.254;2022-07-23T10:58:46;22.70;99.90
10905;DHT22;5505;51.450;9.254;2022-07-23T11:01:33;22.60;99.90
10905;DHT22;5505;51.450;9.254;2022-07-23T11:04:51;22.60;99.90
10905;DHT22;5505;51.450;9.254;2022-07-23T11:11:11;22.40;99.90
10905;DHT22;5505;51.450;9.254;2022-07-23T11:13:58;22.30;99.90
10905;DHT22;5505;51.450;9.254;2022-07-23T11:16:47;22.40;99.90
10905;DHT22;5505;51.450;9.254;2022-07-23T11:22:54;22.20;99.90
10905;DHT22;5505;51.450;9.254;2022-07-23T11:25:41;22.30;99.90
10905;DHT22;5505;51.450;9.254;2022-07-23T11:28:29;22.40;99.90
10905;DHT22;5505;51.450;9.254;2022-07-23T11:31:17;22.40;99.90
10905;DHT22;5505;51.450;9.254;2022-07-23T11:34:30;22.60;99.90
10905;DHT22;5505;51.450;9.254;2022-07-23T11:37:35;22.60;99.90
10905;DHT22;5505;51.450;9.254;2022-07-23T11:40:24;22.50;99.90
10905;DHT22;5505;51.450;9.254;2022-07-23T11:43:11;22.60;99.90
10905;DHT22;5505;51.450;9.254;2022-07-23T11:45:59;22.70;99.90
10905;DHT22;5505;51.450;9.254;2022-07-23T11:48:46;22.00;99.90
10905;DHT22;5505;51.450;9.254;2022-07-23T11:51:47;22.90;99.90
10905;DHT22;5505;51.450;9.254;2022-07-23T11:54:50;23.00;99.90
10905;DHT22;5505;51.450;9.254;2022-07-23T11:57:40;23.00;99.90
10905;DHT22;5505;51.450;9.254;2022-07-23T12:00:29;23.00;99.90
10905;DHT22;5505;51.450;9.254;2022-07-23T12:03:16;23.00;99.90
10905;DHT22;5505;51.450;9.254;2022-07-23T12:06:04;23.00;99.90
10905;DHT22;5505;51.450;9.254;2022-07-23T12:08:51;23.10;99.90
10905;DHT22;5505;51.450;9.254;2022-07-23T12:11:37;23.10;99.90
10905;DHT22;5505;51.450;9.254;2022-07-23T12:14:26;23.10;99.90
10905;DHT22;5505;51.450;9.254;2022-07-23T12:17:13;23.00;99.90
10905;DHT22;5505;51.450;9.254;2022-07-23T12:20:00;22.90;99.90
10905;DHT22;5505;51.450;9.254;2022-07-23T12:22:50;23.00;99.90
10905;DHT22;5505;51.450;9.254;2022-07-23T12:25:38;22.90;99.90
10905;DHT22;5505;51.450;9.254;2022-07-23T12:28:28;22.90;99.90
10905;DHT22;5505;51.450;9.254;2022-07-23T12:31:25;22.90;99.90
10905;DHT22;5505;51.450;9.254;2022-07-23T12:34:14;22.90;99.90
10905;DHT22;5505;51.450;9.254;2022-07-23T12:37:01;22.90;99.90
10905;DHT22;5505;51.450;9.254;2022-07-23T12:39:47;22.90;99.90
10905;DHT22;5505;51.450;9.254;2022-07-23T12:42:41;23.00;99.90
10905;DHT22;5505;51.450;9.254;2022-07-23T12:45:41;23.10;99.90
10905;DHT22;5505;51.450;9.254;2022-07-23T12:48:31;23.10;99.90
10905;DHT22;5505;51.450;9.254;2022-07-23T12:51:21;23.20;99.90
10905;DHT22;5505;51.450;9.254;2022-07-23T12:54:09;23.40;99.90
10905;DHT22;5505;51.450;9.254;2022-07-23T12:56:56;23.40;99.90
10905;DHT22;5505;51.450;9.254;2022-07-23T12:59:43;23.50;99.90
10905;DHT22;5505;51.450;9.254;2022-07-23T13:02:44;23.50;99.90
10905;DHT22;5505;51.450;9.254;2022-07-23T13:05:33;23.40;99.90
10905;DHT22;5505;51.450;9.254;2022-07-23T13:08:20;23.50;99.90
10905;DHT22;5505;51.450;9.254;2022-07-23T13:11:07;23.50;99.90
10905;DHT22;5505;51.450;9.254;2022-07-23T13:13:54;23.70;99.90
10905;DHT22;5505;51.450;9.254;2022-07-23T13:16:43;23.70;99.90
10905;DHT22;5505;51.450;9.254;2022-07-23T13:19:30;23.80;99.90
10905;DHT22;5505;51.450;9.254;2022-07-23T13:22:18;23.80;99.90
10905;DHT22;5505;51.450;9.254;2022-07-23T13:25:06;23.90;99.90
10905;DHT22;5505;51.450;9.254;2022-07-23T13:27:53;23.90;99.90
10905;DHT22;5505;51.450;9.254;2022-07-23T13:30:41;23.80;99.90
10905;DHT22;5505;51.450;9.254;2022-07-23T13:33:27;23.90;99.90
10905;DHT22;5505;51.450;9.254;2022-07-23T13:36:14;24.00;99.90
10905;DHT22;5505;51.450;9.254;2022-07-23T13:39:03;24.00;99.90
10905;DHT22;5505;51.450;9.254;2022-07-23T13:41:50;24.10;99.90
10905;DHT22;5505;51.450;9.254;2022-07-23T13:44:37;24.00;99.90
10905;DHT22;5505;51.450;9.254;2022-07-23T13:47:24;24.10;99.90
10905;DHT22;5505;51.450;9.254;2022-07-23T13:50:11;24.20;99.90
10905;DHT22;5505;51.450;9.254;2022-07-23T13:53:00;24.30;99.90
10905;DHT22;5505;51.450;9.254;2022-07-23T13:55:50;24.40;99.90
10905;DHT22;5505;51.450;9.254;2022-07-23T13:58:37;24.30;99.90
10905;DHT22;5505;51.450;9.254;2022-07-23T14:01:26;24.20;99.90
10905;DHT22;5505;51.450;9.254;2022-07-23T14:04:12;24.20;99.90
10905;DHT22;5505;51.450;9.254;2022-07-23T14:07:00;24.10;99.90
10905;DHT22;5505;51.450;9.254;2022-07-23T14:09:47;24.20;99.90
10905;DHT22;5505;51.450;9.254;2022-07-23T14:12:35;24.20;99.90
10905;DHT22;5505;51.450;9.254;2022-07-23T14:15:22;24.40;99.90
10905;DHT22;5505;51.450;9.254;2022-07-23T14:18:09;24.60;99.90
10905;DHT22;5505;51.450;9.254;2022-07-23T14:20:56;24.70;99.90
10905;DHT22;5505;51.450;9.254;2022-07-23T14:23:43;24.70;99.90
10905;DHT22;5505;51.450;9.254;2022-07-23T14:26:30;24.60;99.10
10905;DHT22;5505;51.450;9.254;2022-07-23T14:29:18;24.60;99.90
10905;DHT22;5505;51.450;9.254;2022-07-23T14:32:05;24.60;99.90
10905;DHT22;5505;51.450;9.254;2022-07-23T14:34:52;24.70;99.90
10905;DHT22;5505;51.450;9.254;2022-07-23T14:37:39;24.80;99.80
10905;DHT22;5505;51.450;9.254;2022-07-23T14:40:26;24.80;99.90
10905;DHT22;5505;51.450;9.254;2022-07-23T14:43:13;24.80;99.90
10905;DHT22;5505;51.450;9.254;2022-07-23T14:46:01;24.80;99.90
10905;DHT22;5505;51.450;9.254;2022-07-23T14:48:47;24.80;99.80
10905;DHT22;5505;51.450;9.254;2022-07-23T14:51:34;24.60;99.30
10905;DHT22;5505;51.450;9.254;2022-07-23T14:54:22;24.60;99.20
10905;DHT22;5505;51.450;9.254;2022-07-23T14:57:09;24.70;99.90
10905;DHT22;5505;51.450;9.254;2022-07-23T14:59:56;24.80;99.90
10905;DHT22;5505;51.450;9.254;2022-07-23T15:02:44;24.80;98.80
10905;DHT22;5505;51.450;9.254;2022-07-23T15:05:30;24.80;98.80
10905;DHT22;5505;51.450;9.254;2022-07-23T15:08:17;24.60;98.90
10905;DHT22;5505;51.450;9.254;2022-07-23T15:11:04;24.60;99.70
10905;DHT22;5505;51.450;9.254;2022-07-23T15:13:54;24.70;99.50
10905;DHT22;5505;51.450;9.254;2022-07-23T15:16:41;24.70;99.40
10905;DHT22;5505;51.450;9.254;2022-07-23T15:19:29;24.70;99.10
10905;DHT22;5505;51.450;9.254;2022-07-23T15:22:16;24.80;99.10
10905;DHT22;5505;51.450;9.254;2022-07-23T15:25:03;24.60;99.40
10905;DHT22;5505;51.450;9.254;2022-07-23T15:27:50;24.60;99.60
10905;DHT22;5505;51.450;9.254;2022-07-23T15:30:37;24.70;99.10
10905;DHT22;5505;51.450;9.254;2022-07-23T15:33:24;24.90;99.40
10905;DHT22;5505;51.450;9.254;2022-07-23T15:36:12;25.00;98.70
10905;DHT22;5505;51.450;9.254;2022-07-23T15:38:59;24.90;97.30
10905;DHT22;5505;51.450;9.254;2022-07-23T15:41:46;24.80;97.80
10905;DHT22;5505;51.450;9.254;2022-07-23T15:44:33;24.70;98.00
10905;DHT22;5505;51.450;9.254;2022-07-23T15:47:20;24.60;97.40
10905;DHT22;5505;51.450;9.254;2022-07-23T15:50:07;24.60;98.50
10905;DHT22;5505;51.450;9.254;2022-07-23T15:52:56;24.70;99.10
10905;DHT22;5505;51.450;9.254;2022-07-23T15:55:43;24.60;99.30
10905;DHT22;5505;51.450;9.254;2022-07-23T15:58:31;24.80;99.40
10905;DHT22;5505;51.450;9.254;2022-07-23T16:01:17;24.80;98.80
10905;DHT22;5505;51.450;9.254;2022-07-23T16:04:04;24.70;98.90
10905;DHT22;5505;51.450;9.254;2022-07-23T16:06:51;24.80;99.00
10905;DHT22;5505;51.450;9.254;2022-07-23T16:09:40;24.80;98.60
10905;DHT22;5505;51.450;9.254;2022-07-23T16:12:26;24.70;98.70
10905;DHT22;5505;51.450;9.254;2022-07-23T16:15:13;24.70;98.70
10905;DHT22;5505;51.450;9.254;2022-07-23T16:18:00;24.70;97.90
10905;DHT22;5505;51.450;9.254;2022-07-23T16:20:47;24.60;98.00
10905;DHT22;5505;51.450;9.254;2022-07-23T16:23:34;24.60;98.10
10905;DHT22;5505;51.450;9.254;2022-07-23T16:26:22;24.70;98.10
10905;DHT22;5505;51.450;9.254;2022-07-23T16:29:09;24.70;98.60
10905;DHT22;5505;51.450;9.254;2022-07-23T16:31:56;24.70;98.20
10905;DHT22;5505;51.450;9.254;2022-07-23T16:34:43;24.70;98.50
10905;DHT22;5505;51.450;9.254;2022-07-23T16:37:30;24.70;97.90
10905;DHT22;5505;51.450;9.254;2022-07-23T16:40:17;24.60;97.60
10905;DHT22;5505;51.450;9.254;2022-07-23T16:43:05;24.60;98.00
10905;DHT22;5505;51.450;9.254;2022-07-23T16:45:52;24.50;98.20
10905;DHT22;5505;51.450;9.254;2022-07-23T16:48:39;24.30;98.70
10905;DHT22;5505;51.450;9.254;2022-07-23T16:51:26;24.40;98.90
10905;DHT22;5505;51.450;9.254;2022-07-23T16:54:13;24.20;99.40
10905;DHT22;5505;51.450;9.254;2022-07-23T16:57:02;24.30;99.30
10905;DHT22;5505;51.450;9.254;2022-07-23T16:59:51;24.30;98.80
10905;DHT22;5505;51.450;9.254;2022-07-23T17:02:38;24.30;99.40
10905;DHT22;5505;51.450;9.254;2022-07-23T17:05:25;24.30;99.40
10905;DHT22;5505;51.450;9.254;2022-07-23T17:08:12;24.30;99.30
10905;DHT22;5505;51.450;9.254;2022-07-23T17:10:59;24.40;99.20
10905;DHT22;5505;51.450;9.254;2022-07-23T17:13:45;24.30;99.00
10905;DHT22;5505;51.450;9.254;2022-07-23T17:16:34;24.30;99.30
10905;DHT22;5505;51.450;9.254;2022-07-23T17:19:21;24.20;98.70
10905;DHT22;5505;51.450;9.254;2022-07-23T17:22:08;24.10;98.90
10905;DHT22;5505;51.450;9.254;2022-07-23T17:24:55;24.10;99.30
10905;DHT22;5505;51.450;9.254;2022-07-23T17:27:43;24.00;99.30
10905;DHT22;5505;51.450;9.254;2022-07-23T17:30:30;23.90;99.70
10905;DHT22;5505;51.450;9.254;2022-07-23T17:33:19;23.90;99.90
10905;DHT22;5505;51.450;9.254;2022-07-23T17:36:07;23.80;99.50
10905;DHT22;5505;51.450;9.254;2022-07-23T17:38:55;23.80;99.70
10905;DHT22;5505;51.450;9.254;2022-07-23T17:41:42;23.70;99.90
10905;DHT22;5505;51.450;9.254;2022-07-23T17:44:32;23.60;99.90
10905;DHT22;5505;51.450;9.254;2022-07-23T17:47:19;23.50;99.90
10905;DHT22;5505;51.450;9.254;2022-07-23T17:50:08;23.50;99.90
10905;DHT22;5505;51.450;9.254;2022-07-23T17:52:56;23.50;99.90
10905;DHT22;5505;51.450;9.254;2022-07-23T17:55:43;23.40;99.90
10905;DHT22;5505;51.450;9.254;2022-07-23T17:58:30;23.30;99.90
10905;DHT22;5505;51.450;9.254;2022-07-23T18:01:17;23.40;99.90
10905;DHT22;5505;51.450;9.254;2022-07-23T18:04:03;23.40;99.80
10905;DHT22;5505;51.450;9.254;2022-07-23T18:06:51;23.30;99.90